Time;durP1;ratioP1;P1;durP2;ratioP2;P2;SDS_P1;SDS_P2;PMS_P1;PMS_P2;Temp;Humidity;BMP_temperature;BMP_pressure;BME280_temperature;BME280_humidity;BME280_pressure;Samples;Min_cycle;Max_cycle;Signal;HPM_P1;HPM_P2
2022/12/04 00:01:11;;;;;;;53.40;31.20;;;;;;;2.40;76.25;101436.96;106883;1307;22802;-74
2022/12/04 00:03:38;;;;;;;49.80;30.20;;;;;;;2.36;75.83;101437.12;106858;1307;22123;-75
2022/12/04 00:06:16;;;;;;;54.30;30.70;;;;;;;2.30;76.06;101433.95;106990;1308;22077;-75
2022/12/04 00:08:43;;;;;;;47.90;29.40;;;;;;;2.31;76.22;101435.70;106803;1307;22788;-76
2022/12/04 00:11:11;;;;;;;47.90;29.70;;;;;;;2.29;76.23;101438.41;106901;1310;22105;-74
2022/12/04 00:13:39;;;;;;;52.60;29.80;;;;;;;2.29;76.35;101435.11;106910;1309;22827;-75
2022/12/04 00:16:12;;;;;;;55.20;30.80;;;;;;;2.32;76.45;101432.09;106928;1310;22092;-73
2022/12/04 00:18:38;;;;;;;50.30;30.20;;;;;;;2.36;76.53;101429.48;107105;1308;22682;-76
2022/12/04 00:21:07;;;;;;;48.50;30.60;;;;;;;2.40;76.52;101432.95;106900;1307;22200;-76
2022/12/04 00:23:35;;;;;;;51.30;30.40;;;;;;;2.40;76.45;101432.42;107103;1304;22113;-76
2022/12/04 00:26:24;;;;;;;55.90;32.00;;;;;;;2.40;76.45;101440.27;107082;1304;22157;-75
2022/12/04 00:28:51;;;;;;;50.10;30.60;;;;;;;2.40;76.35;101449.13;107091;1304;22114;-74
2022/12/04 00:31:20;;;;;;;51.00;29.90;;;;;;;2.39;76.22;101444.91;106937;1304;22094;-75
2022/12/04 00:33:47;;;;;;;48.00;29.80;;;;;;;2.36;76.36;101441.66;106918;1307;22049;-73
2022/12/04 00:36:16;;;;;;;52.50;31.40;;;;;;;2.33;76.19;101442.57;107075;1302;22097;-73
2022/12/04 00:38:43;;;;;;;49.00;30.10;;;;;;;2.31;76.35;101439.73;106903;1307;22204;-73
2022/12/04 00:41:11;;;;;;;46.70;29.10;;;;;;;2.31;76.60;101438.34;107032;1304;22144;-73
2022/12/04 00:43:37;;;;;;;45.70;28.20;;;;;;;2.37;76.76;101441.17;106904;1307;22123;-77
2022/12/04 00:46:03;;;;;;;49.50;29.30;;;;;;;2.42;76.48;101443.83;106788;1304;22532;-78
2022/12/04 00:48:29;;;;;;;51.70;29.80;;;;;;;2.42;76.45;101441.71;106950;1307;23028;-78
2022/12/04 00:51:02;;;;;;;54.00;30.80;;;;;;;2.44;76.35;101440.23;107065;1304;22850;-78
2022/12/04 00:53:29;;;;;;;53.10;31.10;;;;;;;2.47;76.43;101438.80;106880;1296;22796;-79
2022/12/04 00:55:55;;;;;;;51.40;30.30;;;;;;;2.43;76.15;101436.75;106848;1306;22866;-78
2022/12/04 00:58:21;;;;;;;54.60;31.30;;;;;;;2.37;76.27;101438.55;106839;1304;22080;-77
2022/12/04 01:00:47;;;;;;;51.20;29.90;;;;;;;2.36;76.50;101435.75;106755;1309;22068;-77
2022/12/04 01:03:14;;;;;;;48.90;30.20;;;;;;;2.34;76.39;101434.98;106899;1305;22076;-78
2022/12/04 01:05:43;;;;;;;44.20;28.40;;;;;;;2.37;76.51;101431.60;106498;1310;22128;-77
2022/12/04 01:08:11;;;;;;;46.90;28.70;;;;;;;2.40;76.34;101438.52;106557;1311;22213;-81
2022/12/04 01:10:38;;;;;;;47.40;30.50;;;;;;;2.34;76.17;101442.94;106382;1299;22137;-80
2022/12/04 01:13:05;;;;;;;47.50;30.00;;;;;;;2.25;76.35;101443.11;106252;1310;23187;-80
2022/12/04 01:15:31;;;;;;;49.70;29.80;;;;;;;2.25;76.59;101436.31;106489;1311;22354;-76
2022/12/04 01:17:57;;;;;;;42.20;28.20;;;;;;;2.21;76.55;101431.50;106409;1310;22877;-76
2022/12/04 01:20:23;;;;;;;45.30;28.20;;;;;;;2.22;76.67;101435.36;106595;1311;22336;-75
2022/12/04 01:22:49;;;;;;;43.10;27.40;;;;;;;2.21;76.40;101443.12;106490;1310;22097;-76
2022/12/04 01:25:15;;;;;;;45.30;28.80;;;;;;;2.15;76.49;101439.56;107047;1304;22072;-76
2022/12/04 01:27:41;;;;;;;46.50;29.70;;;;;;;2.09;76.60;101431.83;106899;1307;22084;-75
2022/12/04 01:30:08;;;;;;;46.60;29.40;;;;;;;2.06;76.83;101441.99;106863;1307;22181;-75
2022/12/04 01:32:34;;;;;;;49.50;30.00;;;;;;;2.09;77.03;101441.56;107064;1304;22537;-75
2022/12/04 01:35:00;;;;;;;45.90;29.90;;;;;;;2.07;76.84;101439.23;106917;1303;22070;-73
2022/12/04 01:37:29;;;;;;;50.30;29.40;;;;;;;2.08;77.06;101443.77;107059;1304;22132;-75
2022/12/04 01:39:55;;;;;;;45.20;28.20;;;;;;;2.09;76.89;101446.61;106571;1305;22253;-74
2022/12/04 01:42:22;;;;;;;40.80;27.00;;;;;;;2.07;76.87;101443.73;106515;1312;22127;-75
2022/12/04 01:45:25;;;;;;;43.90;28.00;;;;;;;2.10;77.12;101442.14;106491;1310;22184;-75
2022/12/04 01:48:01;;;;;;;45.30;27.80;;;;;;;2.15;77.17;101440.94;106494;1312;22133;-73
2022/12/04 01:50:28;;;;;;;46.20;26.70;;;;;;;2.20;77.32;101436.67;106511;1310;22190;-74
2022/12/04 01:52:54;;;;;;;40.50;25.80;;;;;;;2.25;77.05;101435.63;106510;1310;22120;-76
2022/12/04 01:55:20;;;;;;;41.80;26.50;;;;;;;2.28;76.98;101436.98;106479;1305;22299;-79
2022/12/04 01:57:46;;;;;;;44.90;27.10;;;;;;;2.26;76.83;101436.88;106723;1304;22511;-79
2022/12/04 02:00:14;;;;;;;39.30;25.00;;;;;;;2.28;76.83;101433.29;106837;1307;22896;-78
2022/12/04 02:02:44;;;;;;;44.00;28.50;;;;;;;2.19;76.44;101435.72;106851;1304;22131;-75
2022/12/04 02:05:14;;;;;;;41.90;26.70;;;;;;;2.05;76.51;101435.31;106847;1304;22241;-75
2022/12/04 02:07:42;;;;;;;45.30;26.80;;;;;;;1.95;76.95;101434.41;106981;1307;22079;-76
2022/12/04 02:10:10;;;;;;;41.50;25.50;;;;;;;1.97;77.10;101439.02;107049;1304;22650;-76
2022/12/04 02:12:50;;;;;;;43.00;27.70;;;;;;;1.99;77.27;101428.80;106751;1304;22063;-76
2022/12/04 02:15:33;;;;;;;44.40;27.80;;;;;;;2.01;77.42;101426.10;106885;1304;22366;-77
2022/12/04 02:18:05;;;;;;;47.00;27.90;;;;;;;1.95;77.25;101424.30;106872;1304;22055;-77
2022/12/04 02:20:56;;;;;;;45.90;29.00;;;;;;;1.91;77.36;101420.50;107056;1304;22078;-77
2022/12/04 02:23:39;;;;;;;50.20;29.00;;;;;;;1.90;77.52;101420.63;106838;1306;22252;-78
2022/12/04 02:26:32;;;;;;;42.10;27.60;;;;;;;1.94;77.79;101416.10;106754;1307;22150;-78
2022/12/04 02:29:19;;;;;;;42.70;26.60;;;;;;;2.06;77.89;101410.68;107006;1305;22749;-78
2022/12/04 02:32:00;;;;;;;42.00;26.10;;;;;;;2.11;77.56;101410.22;106872;1307;22053;-76
2022/12/04 02:34:57;;;;;;;46.30;26.90;;;;;;;2.09;77.13;101410.46;106972;1304;22201;-77
2022/12/04 02:37:31;;;;;;;44.80;26.30;;;;;;;2.04;77.30;101412.49;106737;1307;22451;-74
2022/12/04 02:40:08;;;;;;;39.20;25.30;;;;;;;2.02;77.35;101418.15;106874;1304;22093;-75
2022/12/04 02:42:39;;;;;;;42.00;25.00;;;;;;;2.01;77.51;101422.83;106887;1289;22062;-75
2022/12/04 02:45:10;;;;;;;36.30;24.20;;;;;;;2.01;77.35;101423.34;106998;1307;22075;-74
2022/12/04 02:47:41;;;;;;;38.20;24.40;;;;;;;2.04;77.55;101416.01;106702;1307;22099;-74
2022/12/04 02:50:14;;;;;;;42.60;25.80;;;;;;;2.10;77.53;101416.09;106985;1306;22214;-76
2022/12/04 02:52:52;;;;;;;38.40;24.70;;;;;;;2.12;77.22;101416.48;106888;1306;22096;-76
2022/12/04 02:55:31;;;;;;;37.80;24.50;;;;;;;2.09;77.29;101414.12;106981;1305;23125;-77
2022/12/04 02:58:04;;;;;;;41.00;24.80;;;;;;;2.08;77.39;101414.98;106978;1307;22680;-77
2022/12/04 03:00:31;;;;;;;36.20;22.50;;;;;;;2.09;77.33;101418.97;106515;1310;22829;-76
2022/12/04 03:03:07;;;;;;;39.80;24.40;;;;;;;2.15;77.54;101420.61;106424;1311;22134;-75
2022/12/04 03:05:45;;;;;;;41.90;24.90;;;;;;;2.19;77.33;101418.52;106476;1312;23048;-75
2022/12/04 03:08:19;;;;;;;41.40;25.50;;;;;;;2.21;77.25;101422.96;106450;1304;22937;-76
2022/12/04 03:10:49;;;;;;;40.10;25.50;;;;;;;2.18;77.09;101417.80;106547;1310;22126;-76
2022/12/04 03:13:22;;;;;;;36.60;24.10;;;;;;;2.10;76.94;101415.20;106051;1315;22232;-77
2022/12/04 03:16:00;;;;;;;41.20;23.60;;;;;;;2.05;77.01;101408.73;106035;1315;22106;-76
2022/12/04 03:18:40;;;;;;;34.20;22.70;;;;;;;2.03;77.15;101403.08;106156;1311;22116;-74
2022/12/04 03:21:15;;;;;;;38.20;23.90;;;;;;;2.06;77.40;101395.59;106438;1311;22106;-74
2022/12/04 03:23:47;;;;;;;39.50;23.50;;;;;;;2.12;77.38;101402.25;106437;1310;22752;-74
2022/12/04 03:26:22;;;;;;;35.30;23.50;;;;;;;2.19;77.46;101403.58;106469;1312;22129;-83
2022/12/04 03:29:14;;;;;;;37.50;22.50;;;;;;;2.24;77.34;101406.06;106536;1310;22138;-73
2022/12/04 03:31:48;;;;;;;40.00;23.80;;;;;;;2.29;77.16;101401.02;106298;1309;22079;-73
2022/12/04 03:34:25;;;;;;;37.20;24.40;;;;;;;2.26;76.91;101397.63;106588;1310;22275;-84
2022/12/04 03:36:57;;;;;;;41.00;24.90;;;;;;;2.26;77.12;101401.61;106503;1309;23077;-77
2022/12/04 03:40:03;;;;;;;37.80;22.80;;;;;;;2.24;76.89;101403.45;106497;1309;22407;-74
2022/12/04 03:42:45;;;;;;;40.40;23.80;;;;;;;2.22;76.92;101408.08;106311;1309;22137;-74
2022/12/04 03:45:44;;;;;;;39.70;23.70;;;;;;;2.25;77.02;101404.68;106519;1310;22167;-73
2022/12/04 03:48:20;;;;;;;42.00;23.80;;;;;;;2.25;77.06;101397.73;106529;1309;22099;-74
2022/12/04 03:51:01;;;;;;;38.30;23.50;;;;;;;2.28;77.26;101396.63;106958;1304;22057;-74
2022/12/04 03:53:37;;;;;;;39.90;23.50;;;;;;;2.31;77.07;101402.14;106573;1309;22150;-77
2022/12/04 03:56:12;;;;;;;38.20;22.70;;;;;;;2.30;77.03;101397.06;106607;1309;22127;-76
2022/12/04 03:58:45;;;;;;;39.60;22.90;;;;;;;2.30;77.00;101400.57;106488;1309;22122;-76
2022/12/04 04:01:13;;;;;;;41.90;24.60;;;;;;;2.32;76.94;101390.04;106600;1310;22197;-74
2022/12/04 04:03:48;;;;;;;34.80;22.40;;;;;;;2.30;76.80;101388.38;106519;1309;22818;-75
2022/12/04 04:06:22;;;;;;;39.90;23.40;;;;;;;2.23;76.70;101393.15;106441;1304;22079;-75
2022/12/04 04:08:54;;;;;;;39.40;23.50;;;;;;;2.17;76.55;101393.42;106505;1309;22149;-76
2022/12/04 04:11:32;;;;;;;33.80;21.60;;;;;;;2.03;76.59;101390.59;106519;1307;22545;-76
2022/12/04 04:25:24;;;;;;;35.70;22.00;;;;;;;2.34;76.98;101395.86;106869;1306;22377;-76
2022/12/04 04:27:55;;;;;;;34.40;22.30;;;;;;;2.34;76.90;101387.48;106885;1307;22055;-74
2022/12/04 04:30:21;;;;;;;36.20;22.50;;;;;;;2.33;76.65;101383.66;106850;1306;22074;-78
2022/12/04 04:32:57;;;;;;;34.10;21.30;;;;;;;2.31;76.57;101373.98;106841;1306;22742;-76
2022/12/04 04:35:40;;;;;;;38.70;22.70;;;;;;;2.29;76.42;101371.66;106845;1306;22682;-75
2022/12/04 04:38:25;;;;;;;35.30;22.30;;;;;;;2.29;76.75;101375.30;106852;1306;22670;-76
2022/12/04 04:41:00;;;;;;;36.80;23.70;;;;;;;2.29;76.58;101380.34;106651;1307;22127;-76
2022/12/04 04:43:43;;;;;;;40.10;23.90;;;;;;;2.27;76.71;101381.67;106966;1298;22959;-76
2022/12/04 04:46:23;;;;;;;40.10;24.70;;;;;;;2.27;76.68;101379.40;106979;1305;22392;-76
2022/12/04 04:48:53;;;;;;;45.10;25.20;;;;;;;2.28;76.69;101386.38;106848;1300;22069;-76
2022/12/04 04:51:19;;;;;;;41.30;26.40;;;;;;;2.30;76.71;101389.79;106826;1306;23019;-85
2022/12/04 04:53:49;;;;;;;40.90;25.50;;;;;;;2.34;76.89;101392.17;106877;1306;22047;-80
2022/12/04 04:56:16;;;;;;;41.40;26.90;;;;;;;2.42;76.98;101391.48;106835;1306;22123;-80
2022/12/04 04:58:42;;;;;;;42.80;27.60;;;;;;;2.45;76.67;101393.84;106954;1307;22091;-80
2022/12/04 05:01:12;;;;;;;43.90;27.50;;;;;;;2.44;76.63;101396.11;106701;1304;22849;-76
2022/12/04 05:03:40;;;;;;;45.90;26.50;;;;;;;2.44;76.54;101398.15;106775;1307;22069;-75
2022/12/04 05:06:06;;;;;;;45.60;27.20;;;;;;;2.41;76.55;101403.63;106859;1298;22070;-75
2022/12/04 05:08:33;;;;;;;42.00;25.50;;;;;;;2.45;76.64;101404.63;106856;1304;22252;-79
2022/12/04 05:11:00;;;;;;;34.20;23.70;;;;;;;2.51;76.64;101399.63;106995;1304;22196;-80
2022/12/04 05:13:27;;;;;;;42.10;25.50;;;;;;;2.52;76.30;101405.05;107079;1303;22624;-79
2022/12/04 05:15:58;;;;;;;39.40;25.80;;;;;;;2.53;76.34;101400.59;106578;1310;22819;-77
2022/12/04 05:18:24;;;;;;;42.00;26.40;;;;;;;2.55;76.27;101401.03;106539;1310;22114;-76
2022/12/04 05:20:50;;;;;;;40.20;24.70;;;;;;;2.54;76.12;101392.14;106272;1310;22191;-76
2022/12/04 05:23:16;;;;;;;38.60;25.30;;;;;;;2.54;76.11;101399.93;106415;1312;22529;-78
2022/12/04 05:25:42;;;;;;;37.90;24.60;;;;;;;2.51;75.82;101404.16;106378;1310;22146;-78
2022/12/04 05:28:08;;;;;;;35.70;23.20;;;;;;;2.36;75.37;101410.01;105888;1318;22569;-77
2022/12/04 05:30:34;;;;;;;38.90;23.20;;;;;;;2.17;75.33;101408.52;106027;1308;22108;-77
2022/12/04 05:33:00;;;;;;;37.10;24.20;;;;;;;2.14;76.20;101406.51;106041;1317;22137;-76
2022/12/04 05:35:26;;;;;;;34.90;22.90;;;;;;;2.13;76.07;101408.55;106393;1310;22168;-76
2022/12/04 05:37:52;;;;;;;32.50;22.60;;;;;;;2.11;76.28;101418.18;106583;1310;22165;-75
2022/12/04 05:40:18;;;;;;;34.80;22.70;;;;;;;2.09;76.07;101422.79;106497;1303;22277;-75
2022/12/04 05:42:44;;;;;;;34.50;23.30;;;;;;;2.03;76.24;101427.05;106496;1310;22193;-76
2022/12/04 05:45:10;;;;;;;32.80;21.40;;;;;;;2.07;76.51;101421.14;106535;1310;22202;-76
2022/12/04 05:47:41;;;;;;;33.80;22.80;;;;;;;2.13;76.60;101420.73;106984;1304;22323;-83
2022/12/04 05:50:09;;;;;;;34.00;21.40;;;;;;;2.22;76.49;101420.23;107067;1304;22859;-76
2022/12/04 05:52:35;;;;;;;32.70;21.40;;;;;;;2.24;76.13;101413.86;106738;1304;22170;-78
2022/12/04 05:55:01;;;;;;;32.90;21.40;;;;;;;2.19;75.98;101407.07;107057;1303;22175;-76
2022/12/04 05:57:27;;;;;;;33.90;21.90;;;;;;;2.16;75.89;101410.05;106825;1304;22107;-74
2022/12/04 05:59:55;;;;;;;32.30;20.70;;;;;;;2.10;75.84;101408.23;107064;1304;22140;-78
2022/12/04 06:02:22;;;;;;;32.70;20.90;;;;;;;2.08;76.13;101409.73;106874;1304;22118;-76
2022/12/04 06:04:48;;;;;;;28.80;19.60;;;;;;;2.14;76.42;101412.06;106833;1304;22136;-78
2022/12/04 06:07:14;;;;;;;30.60;20.80;;;;;;;2.19;76.26;101418.02;107051;1304;22922;-78
2022/12/04 06:09:40;;;;;;;30.60;21.30;;;;;;;2.25;76.14;101425.89;106893;1304;22080;-74
2022/12/04 06:12:06;;;;;;;35.40;21.80;;;;;;;2.28;76.08;101426.38;106899;1304;22055;-77
2022/12/04 06:14:32;;;;;;;30.80;22.40;;;;;;;2.30;75.84;101430.27;106855;1304;22686;-74
2022/12/04 06:17:05;;;;;;;33.90;22.70;;;;;;;2.30;75.99;101423.14;106888;1304;22038;-73
2022/12/04 06:19:30;;;;;;;34.50;22.00;;;;;;;2.31;75.73;101421.45;106758;1306;22295;-81
2022/12/04 06:21:57;;;;;;;34.90;22.50;;;;;;;2.23;75.63;101416.45;106415;1312;22174;-82
2022/12/04 06:24:24;;;;;;;31.20;20.90;;;;;;;2.20;75.65;101424.31;106410;1312;22172;-82
2022/12/04 06:26:55;;;;;;;34.70;22.10;;;;;;;2.20;75.75;101432.47;106206;1313;22234;-81
2022/12/04 06:29:41;;;;;;;29.60;20.10;;;;;;;2.20;75.70;101441.55;106365;1312;22471;-82
2022/12/04 06:32:07;;;;;;;32.60;22.10;;;;;;;2.22;75.81;101438.46;105898;1317;22128;-82
2022/12/04 06:34:34;;;;;;;38.80;24.50;;;;;;;2.21;75.79;101436.19;105908;1318;22236;-81
2022/12/04 06:37:00;;;;;;;34.80;21.90;;;;;;;2.19;75.71;101433.98;106072;1317;22157;-82
2022/12/04 06:39:26;;;;;;;36.30;22.50;;;;;;;2.13;75.60;101438.29;106185;1309;22970;-83
2022/12/04 06:41:52;;;;;;;33.60;21.50;;;;;;;2.10;75.63;101447.55;106483;1309;22369;-83
2022/12/04 06:44:18;;;;;;;32.60;21.00;;;;;;;2.14;75.89;101451.15;106435;1310;22108;-81
2022/12/04 06:46:44;;;;;;;33.80;22.20;;;;;;;2.17;75.98;101453.90;106545;1310;22150;-85
2022/12/04 06:49:13;;;;;;;35.60;23.20;;;;;;;2.16;75.57;101451.77;106491;1310;22114;-79
2022/12/04 06:51:39;;;;;;;39.00;23.60;;;;;;;2.12;75.81;101450.53;106842;1304;22229;-80
2022/12/04 06:54:05;;;;;;;33.90;23.20;;;;;;;2.15;76.13;101447.56;106852;1307;22107;-81
2022/12/04 06:56:32;;;;;;;33.50;22.10;;;;;;;2.19;76.09;101447.38;106876;1304;22059;-81
2022/12/04 06:59:00;;;;;;;35.50;23.20;;;;;;;2.18;75.90;101444.41;106869;1304;22073;-83
2022/12/04 07:01:29;;;;;;;37.00;23.10;;;;;;;2.16;75.64;101448.29;106886;1304;22397;-82
2022/12/04 07:03:57;;;;;;;37.20;22.50;;;;;;;2.12;75.71;101449.15;106888;1304;22343;-77
2022/12/04 07:06:28;;;;;;;34.60;21.40;;;;;;;2.13;75.83;101456.17;106799;1304;22717;-74
2022/12/04 07:09:08;;;;;;;35.80;23.10;;;;;;;2.09;75.57;101450.98;106806;1304;22047;-81
2022/12/04 07:11:35;;;;;;;32.70;21.20;;;;;;;2.01;75.74;101445.77;106825;1304;22779;-83
2022/12/04 07:14:02;;;;;;;33.30;22.60;;;;;;;1.96;75.81;101446.09;106803;1307;22132;-84
2022/12/04 07:16:28;;;;;;;33.80;22.40;;;;;;;1.97;75.99;101453.58;106860;1304;22649;-83
2022/12/04 07:18:57;;;;;;;31.20;20.80;;;;;;;1.98;76.12;101452.77;106836;1305;22866;-85
2022/12/04 07:21:28;;;;;;;31.00;20.20;;;;;;;2.05;75.94;101451.14;106828;1307;23092;-82
2022/12/04 07:23:57;;;;;;;30.40;21.50;;;;;;;2.07;76.01;101449.81;106822;1304;22088;-83
2022/12/04 07:26:25;;;;;;;32.70;21.90;;;;;;;2.12;76.12;101450.55;107100;1284;22061;-82
2022/12/04 07:28:53;;;;;;;29.40;20.70;;;;;;;2.16;75.80;101448.83;106735;1304;22050;-82
2022/12/04 07:31:21;;;;;;;34.10;21.30;;;;;;;2.14;75.73;101445.95;106356;1312;22414;-82
2022/12/04 07:33:48;;;;;;;31.50;22.10;;;;;;;2.15;75.77;101447.77;106216;1312;22143;-82
2022/12/04 07:36:16;;;;;;;29.20;20.80;;;;;;;2.16;75.69;101447.77;106383;1312;22140;-83
2022/12/04 07:38:42;;;;;;;29.20;20.30;;;;;;;2.17;75.60;101452.02;106330;1311;177734;-83
2022/12/04 07:41:10;;;;;;;30.60;20.60;;;;;;;2.24;75.88;101455.40;106460;1312;22179;-83
2022/12/04 07:43:38;;;;;;;29.00;20.50;;;;;;;2.32;75.70;101460.27;106477;1311;22916;-84
2022/12/04 07:46:07;;;;;;;29.30;21.10;;;;;;;2.36;75.42;101460.08;106546;1310;22114;-82
2022/12/04 07:48:34;;;;;;;30.30;21.00;;;;;;;2.33;75.08;101461.69;105879;1313;22351;-82
2022/12/04 07:51:07;;;;;;;30.30;21.50;;;;;;;2.25;74.94;101463.10;106105;1312;22105;-83
2022/12/04 07:53:34;;;;;;;31.70;22.80;;;;;;;2.22;75.27;101462.63;106460;1311;22122;-83
2022/12/04 07:56:02;;;;;;;29.70;21.40;;;;;;;2.24;75.30;101467.06;106479;1312;22319;-83
2022/12/04 07:58:28;;;;;;;31.30;20.20;;;;;;;2.31;75.57;101467.00;106185;1312;22199;-83
2022/12/04 08:00:54;;;;;;;32.20;21.10;;;;;;;2.37;75.12;101467.76;106459;1311;22878;-83
2022/12/04 08:03:20;;;;;;;29.40;20.30;;;;;;;2.32;74.90;101474.52;106257;1310;22192;-83
2022/12/04 08:05:46;;;;;;;31.00;21.90;;;;;;;2.34;75.11;101476.34;106427;1304;23052;-82
2022/12/04 08:08:12;;;;;;;31.60;21.50;;;;;;;2.38;75.19;101479.30;106837;1304;22108;-83
2022/12/04 08:10:39;;;;;;;30.30;21.40;;;;;;;2.41;74.95;101476.45;106880;1298;22100;-81
2022/12/04 08:13:06;;;;;;;30.80;21.30;;;;;;;2.39;74.78;101478.64;106829;1304;22145;-88
2022/12/04 08:15:33;;;;;;;29.60;21.70;;;;;;;2.35;74.71;101478.30;106476;1312;22280;-87
2022/12/04 08:17:59;;;;;;;27.00;19.80;;;;;;;2.33;74.80;101478.04;106526;1311;22112;-86
2022/12/04 08:20:25;;;;;;;25.70;19.30;;;;;;;2.36;74.84;101472.42;106388;1313;22138;-85
2022/12/04 08:22:52;;;;;;;28.20;21.80;;;;;;;2.33;74.53;101463.98;106450;1312;22812;-85
2022/12/04 08:25:18;;;;;;;26.50;20.10;;;;;;;2.26;74.53;101477.04;106295;1310;22330;-86
2022/12/04 08:27:45;;;;;;;30.20;21.00;;;;;;;2.20;74.61;101474.05;106399;1310;22247;-85
2022/12/04 08:30:13;;;;;;;22.60;18.10;;;;;;;2.19;75.03;101474.86;106419;1310;22130;-85
2022/12/04 08:32:39;;;;;;;26.30;19.60;;;;;;;2.19;74.86;101474.14;106502;1311;22180;-85
2022/12/04 08:35:05;;;;;;;31.90;20.50;;;;;;;2.14;74.67;101475.67;106921;1304;22068;-85
2022/12/04 08:37:31;;;;;;;28.10;20.20;;;;;;;2.13;74.94;101477.35;106894;1304;22137;-86
2022/12/04 08:39:57;;;;;;;27.10;20.10;;;;;;;2.19;75.15;101476.42;106911;1299;22083;-85
2022/12/04 08:42:24;;;;;;;30.20;19.80;;;;;;;2.24;75.02;101475.90;107140;1296;22131;-86
2022/12/04 08:44:50;;;;;;;29.80;21.10;;;;;;;2.24;74.84;101472.27;107088;1304;22063;-87
2022/12/04 08:47:16;;;;;;;26.70;19.60;;;;;;;2.25;74.86;101469.15;107190;1304;22081;-86
2022/12/04 08:49:42;;;;;;;31.20;20.90;;;;;;;2.26;75.00;101468.89;107147;1301;22801;-84
2022/12/04 08:52:08;;;;;;;26.70;19.80;;;;;;;2.28;74.83;101466.02;107156;1294;22309;-87
2022/12/04 08:54:34;;;;;;;26.40;19.10;;;;;;;2.23;74.65;101465.81;106827;1310;22129;-87
2022/12/04 08:57:02;;;;;;;28.20;19.30;;;;;;;2.20;74.53;101457.36;106692;1310;22137;-86
2022/12/04 08:59:28;;;;;;;28.00;19.40;;;;;;;2.24;75.03;101461.33;106732;1310;22162;-86
2022/12/04 09:01:54;;;;;;;27.40;21.10;;;;;;;2.35;75.28;101460.23;106743;1310;22840;-86
2022/12/04 09:04:20;;;;;;;26.40;19.80;;;;;;;2.41;74.80;101462.19;106764;1310;22130;-84
2022/12/04 09:06:47;;;;;;;28.90;20.50;;;;;;;2.39;74.50;101467.01;106773;1304;22174;-86
2022/12/04 09:09:13;;;;;;;26.50;20.20;;;;;;;2.36;74.60;101464.08;106758;1297;22110;-86
2022/12/04 09:11:39;;;;;;;29.80;21.10;;;;;;;2.32;74.62;101468.27;106757;1310;22197;-86
2022/12/04 09:14:05;;;;;;;25.00;19.20;;;;;;;2.32;74.71;101462.69;107031;1306;22086;-87
2022/12/04 09:16:31;;;;;;;25.70;18.90;;;;;;;2.27;74.36;101466.31;107200;1304;22064;-86
2022/12/04 09:18:57;;;;;;;26.70;19.60;;;;;;;2.24;74.67;101456.45;106848;1304;22061;-84
2022/12/04 09:21:24;;;;;;;26.00;19.30;;;;;;;2.22;74.65;101450.33;106937;1301;22364;-85
2022/12/04 09:23:50;;;;;;;25.80;20.40;;;;;;;2.30;75.06;101453.58;106897;1304;22224;-86
2022/12/04 09:26:29;;;;;;;25.90;19.00;;;;;;;2.35;74.87;101456.73;107033;1304;22094;-85
2022/12/04 09:28:56;;;;;;;24.90;19.20;;;;;;;2.38;74.66;101455.14;106947;1304;22071;-83
2022/12/04 09:31:23;;;;;;;25.00;19.00;;;;;;;2.31;74.37;101454.84;106890;1304;22164;-84
2022/12/04 09:33:50;;;;;;;27.20;19.10;;;;;;;2.27;74.64;101449.60;106874;1304;22247;-84
2022/12/04 09:36:16;;;;;;;25.70;19.10;;;;;;;2.30;74.72;101452.02;106997;1298;22733;-85
2022/12/04 09:38:45;;;;;;;25.30;18.50;;;;;;;2.29;74.76;101447.63;106920;1304;22054;-84
2022/12/04 09:41:35;;;;;;;24.50;19.20;;;;;;;2.35;74.80;101447.55;107020;1304;22041;-83
2022/12/04 09:44:24;;;;;;;25.20;18.70;;;;;;;2.41;74.72;101445.69;107006;1299;22166;-83
2022/12/04 09:46:59;;;;;;;25.70;20.00;;;;;;;2.39;74.51;101449.26;107019;1304;22162;-81
2022/12/04 09:49:56;;;;;;;29.40;20.50;;;;;;;2.34;74.51;101448.70;106929;1304;22096;-84
2022/12/04 09:52:44;;;;;;;26.30;17.70;;;;;;;2.27;74.57;101444.60;106870;1302;22076;-82
2022/12/04 09:55:52;;;;;;;24.70;17.40;;;;;;;2.31;74.73;101442.48;106540;1310;22169;-83
2022/12/04 09:58:22;;;;;;;25.80;18.50;;;;;;;2.38;74.91;101443.30;106432;1311;22124;-78
2022/12/04 10:00:50;;;;;;;27.60;19.30;;;;;;;2.47;74.96;101437.23;106315;1312;22288;-84
2022/12/04 10:03:19;;;;;;;23.50;18.40;;;;;;;2.51;74.76;101433.58;106417;1311;22127;-83
2022/12/04 10:06:05;;;;;;;26.10;19.50;;;;;;;2.53;74.72;101430.85;105743;1318;22113;-84
2022/12/04 10:08:39;;;;;;;25.00;18.90;;;;;;;2.60;74.99;101428.57;105895;1318;22211;-85
2022/12/04 10:11:16;;;;;;;29.40;20.40;;;;;;;2.64;74.56;101430.23;105829;1300;22225;-83
2022/12/04 10:14:02;;;;;;;;;;;;;;;2.61;74.18;101426.66;106456;1309;23211;-86
2022/12/04 10:16:43;;;;;;;25.50;17.00;;;;;;;2.53;74.02;101426.33;105971;1318;22351;-88
2022/12/04 10:19:48;;;;;;;22.70;16.90;;;;;;;2.52;74.20;101420.36;105477;1322;22142;-80
2022/12/04 10:22:23;;;;;;;23.40;18.40;;;;;;;2.61;74.56;101418.13;105367;1322;22167;-83
2022/12/04 10:25:01;;;;;;;23.00;18.70;;;;;;;2.65;74.46;101424.94;105569;1319;22255;-84
2022/12/04 10:27:38;;;;;;;24.60;18.10;;;;;;;2.65;74.21;101415.86;105880;1319;22134;-88
2022/12/04 10:30:21;;;;;;;24.90;18.20;;;;;;;2.64;74.44;101419.64;105708;1319;22156;-82
2022/12/04 10:32:56;;;;;;;25.90;19.90;;;;;;;2.68;74.38;101415.65;105542;1319;22971;-83
2022/12/04 10:35:26;;;;;;;24.80;17.30;;;;;;;2.68;74.28;101419.82;105603;1319;22384;-84
2022/12/04 10:38:21;;;;;;;23.00;17.10;;;;;;;2.74;74.51;101413.93;105513;1319;22178;-85
2022/12/04 10:40:54;;;;;;;22.30;18.10;;;;;;;2.80;74.10;101410.70;105608;1320;22166;-84
2022/12/04 10:43:40;;;;;;;24.80;17.10;;;;;;;2.78;74.03;101404.38;105863;1319;22191;-84
2022/12/04 10:46:20;;;;;;;22.90;18.30;;;;;;;2.75;74.04;101398.34;105851;1317;22408;-83
2022/12/04 10:48:49;;;;;;;23.90;19.10;;;;;;;2.78;74.10;101398.26;105931;1317;22825;-84
2022/12/04 10:51:18;;;;;;;24.00;18.80;;;;;;;2.77;73.86;101400.83;105608;1319;22654;-85
2022/12/04 10:53:45;;;;;;;24.80;20.10;;;;;;;2.65;73.68;101392.54;106002;1313;22733;-84
2022/12/04 10:56:13;;;;;;;24.80;19.20;;;;;;;2.61;74.13;101391.72;106092;1316;22177;-83
2022/12/04 10:58:40;;;;;;;23.90;17.10;;;;;;;2.68;74.40;101390.94;106297;1316;22211;-82
2022/12/04 11:01:11;;;;;;;21.50;17.60;;;;;;;2.75;74.33;101387.89;106496;1313;22951;-84
2022/12/04 11:03:44;;;;;;;22.70;18.20;;;;;;;2.78;74.08;101385.60;106351;1310;22135;-84
2022/12/04 11:06:13;;;;;;;25.30;19.00;;;;;;;2.78;74.00;101382.27;106566;1313;22185;-82
2022/12/04 11:08:48;;;;;;;24.90;19.80;;;;;;;2.78;74.05;101377.60;106445;1313;22162;-87
2022/12/04 11:11:22;;;;;;;26.00;19.30;;;;;;;2.70;73.74;101372.23;106783;1313;21967;-85
2022/12/04 11:14:02;;;;;;;24.00;19.40;;;;;;;2.65;74.09;101373.79;106692;1316;22170;-88
2022/12/04 11:16:36;;;;;;;22.80;18.40;;;;;;;2.62;74.04;101372.98;106659;1316;22099;-87
2022/12/04 11:19:17;;;;;;;26.00;18.30;;;;;;;2.59;74.16;101369.88;106551;1313;22196;-87
2022/12/04 11:21:44;;;;;;;23.80;19.00;;;;;;;2.59;74.27;101378.59;106504;1313;22209;-87
2022/12/04 11:24:28;;;;;;;24.20;19.40;;;;;;;2.60;74.42;101372.01;106434;1316;22291;-87
2022/12/04 11:26:56;;;;;;;24.60;19.20;;;;;;;2.65;74.52;101370.84;106434;1316;22196;-88
2022/12/04 11:29:31;;;;;;;28.00;20.00;;;;;;;2.64;74.25;101366.09;106623;1313;22347;-86
2022/12/04 11:31:58;;;;;;;22.70;18.10;;;;;;;2.67;74.24;101369.31;106601;1308;22283;-86
2022/12/04 11:34:40;;;;;;;22.50;18.00;;;;;;;2.70;74.33;101367.73;106572;1313;22114;-89
2022/12/04 11:37:19;;;;;;;26.50;20.30;;;;;;;2.77;74.33;101370.20;106661;1313;22115;-88
2022/12/04 11:39:46;;;;;;;24.60;20.00;;;;;;;2.78;74.07;101365.90;106514;1313;22127;-89